GMMI

Mogador Airport

Essaouira, Morocco
METAR GMMI 220400Z AUTO VRB01KT 9999NDV ////// 14/11 Q1012 NOSIG
Observed Flight Rules
Apr-22 @ 04:00 UTC (3 hours ago)
Wind
Variable at 1 knots
Temperatures Readings
Current 14°C / 57°F
Dewpoint 11°C / 52°F
Humidity 82%
Altimeter 29.88" Hg
Pressure 1012 hPa
Elevation 8
METAR GMMI 220400Z AUTO VRB01KT 9999NDV ////// 14/11 Q1012 NOSIG
Observed Flight Rules
Apr-22 @ 04:00 UTC
(3 hours ago)
Wind
Variable at 1 knots
Temperature Dewpoint
14°C / 57°F 11°C / 52°F
Humidity Altimeter Pressure
82% 29.88" Hg 1012 hPa